Time;durP1;ratioP1;P1;durP2;ratioP2;P2;SDS_P1;SDS_P2;PMS_P1;PMS_P2;Temp;Humidity;BMP_temperature;BMP_pressure;BME280_temperature;BME280_humidity;BME280_pressure;Samples;Min_cycle;Max_cycle;Signal;HPM_P1;HPM_P2
2021/12/11 00:00:37;;;;;;;40.55;23.63;;;;;;;;;;5113542;27;20057;-76
2021/12/11 00:03:23;;;;;;;37.50;21.83;;;;;;;;;;5140894;27;20054;-75
2021/12/11 00:05:51;;;;;;;34.30;20.95;;;;;;;;;;5129317;27;20133;-76
2021/12/11 00:08:20;;;;;;;31.88;19.38;;;;;;;;;;5127249;27;20051;-76
2021/12/11 00:10:51;;;;;;;32.67;21.23;;;;;;;;;;5166742;27;20385;-76
2021/12/11 00:13:21;;;;;;;35.40;20.73;;;;;;;;;;5137578;27;20042;-76
2021/12/11 00:15:48;;;;;;;39.45;21.75;;;;;;;;;;5113421;27;20035;-76
2021/12/11 00:18:18;;;;;;;37.30;22.55;;;;;;;;;;5118828;27;20502;-76
2021/12/11 00:20:50;;;;;;;39.65;23.10;;;;;;;;;;5115715;27;20050;-76
2021/12/11 00:23:22;;;;;;;41.20;23.05;;;;;;;;;;5134482;27;20506;-76
2021/12/11 00:25:48;;;;;;;42.35;23.88;;;;;;;;;;5132888;27;20061;-76
2021/12/11 00:28:14;;;;;;;43.25;23.58;;;;;;;;;;5103238;27;20196;-76
2021/12/11 00:30:42;;;;;;;40.35;21.98;;;;;;;;;;5116029;27;20426;-76
2021/12/11 00:33:10;;;;;;;38.15;21.80;;;;;;;;;;5133078;27;20042;-76
2021/12/11 00:35:37;;;;;;;39.88;23.10;;;;;;;;;;5133673;27;20038;-76
2021/12/11 00:38:05;;;;;;;38.58;22.23;;;;;;;;;;5132349;27;20038;-76
2021/12/11 00:40:31;;;;;;;34.83;22.13;;;;;;;;;;5133119;27;20087;-75
2021/12/11 00:43:01;;;;;;;41.70;22.33;;;;;;;;;;5115610;27;20135;-76
2021/12/11 00:45:29;;;;;;;39.08;20.77;;;;;;;;;;5131696;27;20516;-76
2021/12/11 00:48:00;;;;;;;36.85;22.27;;;;;;;;;;5133133;27;20038;-76
2021/12/11 00:50:28;;;;;;;37.50;22.67;;;;;;;;;;5115663;27;20039;-76
2021/12/11 00:53:06;;;;;;;37.72;21.13;;;;;;;;;;5134438;27;20047;-76
2021/12/11 00:55:34;;;;;;;36.22;21.13;;;;;;;;;;5151335;27;20037;-75
2021/12/11 00:58:03;;;;;;;37.10;20.85;;;;;;;;;;5128728;27;20039;-75
2021/12/11 01:00:34;;;;;;;33.25;18.92;;;;;;;;;;5102685;27;20043;-76
2021/12/11 01:03:00;;;;;;;32.90;19.08;;;;;;;;;;5103424;27;20047;-76
2021/12/11 01:05:33;;;;;;;34.65;20.30;;;;;;;;;;5122750;27;20065;-75
2021/12/11 01:07:59;;;;;;;40.60;21.25;;;;;;;;;;5105672;27;20050;-76
2021/12/11 01:10:27;;;;;;;40.17;22.80;;;;;;;;;;5106556;27;20043;-76
2021/12/11 01:13:00;;;;;;;44.20;23.17;;;;;;;;;;5123811;27;20175;-75
2021/12/11 01:15:35;;;;;;;37.95;21.30;;;;;;;;;;5105056;27;20035;-75
2021/12/11 01:20:48;;;;;;;40.67;21.60;;;;;;;;;;5120505;27;20051;-76
2021/12/11 01:26:15;;;;;;;37.58;21.42;;;;;;;;;;5074577;27;20042;-76
2021/12/11 01:28:41;;;;;;;43.95;22.40;;;;;;;;;;5106324;28;20135;-76
2021/12/11 01:31:08;;;;;;;34.90;20.70;;;;;;;;;;5105719;27;20134;-76
2021/12/11 01:33:34;;;;;;;40.17;21.30;;;;;;;;;;5117204;28;20172;-76
2021/12/11 01:36:01;;;;;;;46.25;22.73;;;;;;;;;;5109329;28;20151;-76
2021/12/11 01:38:28;;;;;;;42.97;22.50;;;;;;;;;;5122155;28;20040;-76
2021/12/11 01:41:00;;;;;;;45.67;22.88;;;;;;;;;;5124567;28;20122;-75
2021/12/11 01:43:28;;;;;;;42.05;22.30;;;;;;;;;;5117259;28;20036;-76
2021/12/11 01:45:54;;;;;;;41.63;22.85;;;;;;;;;;5123812;28;20082;-76
2021/12/11 01:48:24;;;;;;;44.30;23.77;;;;;;;;;;5121930;28;20050;-76
2021/12/11 01:50:53;;;;;;;43.83;22.75;;;;;;;;;;5118173;28;20644;-74
2021/12/11 01:53:25;;;;;;;42.05;22.25;;;;;;;;;;5120880;28;20043;-74
2021/12/11 01:55:54;;;;;;;45.25;23.80;;;;;;;;;;5116523;28;20042;-74
2021/12/11 01:58:29;;;;;;;39.45;20.95;;;;;;;;;;5104615;28;20066;-74
2021/12/11 02:01:01;;;;;;;43.15;23.27;;;;;;;;;;5102509;28;20044;-74
2021/12/11 02:03:29;;;;;;;37.92;21.83;;;;;;;;;;5115583;28;20079;-74
2021/12/11 02:05:56;;;;;;;36.17;18.75;;;;;;;;;;5120189;28;20448;-74
2021/12/11 02:08:28;;;;;;;41.22;20.85;;;;;;;;;;5123499;28;20123;-74
2021/12/11 02:10:59;;;;;;;36.38;20.98;;;;;;;;;;5120984;28;20069;-74
2021/12/11 02:13:38;;;;;;;40.65;20.70;;;;;;;;;;5107188;28;20047;-74
2021/12/11 02:16:05;;;;;;;40.58;21.90;;;;;;;;;;5101514;27;20044;-74
2021/12/11 02:18:35;;;;;;;39.58;20.50;;;;;;;;;;5112553;27;20074;-74
2021/12/11 02:21:12;;;;;;;34.78;19.83;;;;;;;;;;5125089;27;20107;-74
2021/12/11 02:23:39;;;;;;;43.33;20.55;;;;;;;;;;5127741;27;20371;-75
2021/12/11 02:26:11;;;;;;;39.80;21.23;;;;;;;;;;5103372;27;20514;-75
2021/12/11 02:28:44;;;;;;;34.78;19.52;;;;;;;;;;5128737;27;20047;-75
2021/12/11 02:31:19;;;;;;;36.33;18.83;;;;;;;;;;5106420;27;20126;-75
2021/12/11 02:33:55;;;;;;;36.42;20.35;;;;;;;;;;5126180;27;20047;-74
2021/12/11 02:36:31;;;;;;;35.30;19.65;;;;;;;;;;5120256;27;20047;-75
2021/12/11 02:38:59;;;;;;;40.35;21.00;;;;;;;;;;5124692;27;20080;-74
2021/12/11 02:41:25;;;;;;;36.80;20.45;;;;;;;;;;5122955;27;20063;-74
2021/12/11 02:43:54;;;;;;;34.53;19.38;;;;;;;;;;5111894;27;20051;-74
2021/12/11 02:46:23;;;;;;;37.72;19.45;;;;;;;;;;5125664;27;20043;-74
2021/12/11 02:48:53;;;;;;;35.53;19.33;;;;;;;;;;5110826;27;20439;-74
2021/12/11 02:51:22;;;;;;;43.28;20.63;;;;;;;;;;5124936;27;20385;-75
2021/12/11 02:53:54;;;;;;;39.33;20.35;;;;;;;;;;5125356;27;20047;-75
2021/12/11 02:56:24;;;;;;;33.13;19.20;;;;;;;;;;5106519;27;20067;-74
2021/12/11 02:58:56;;;;;;;34.42;18.48;;;;;;;;;;5111321;27;20076;-74
2021/12/11 03:01:29;;;;;;;36.70;19.73;;;;;;;;;;5092619;28;20058;-75
2021/12/11 03:04:09;;;;;;;44.40;21.70;;;;;;;;;;5109519;28;20047;-74
2021/12/11 03:06:41;;;;;;;43.00;21.40;;;;;;;;;;5094064;28;20135;-74
2021/12/11 03:09:08;;;;;;;40.63;22.63;;;;;;;;;;5109745;28;20570;-75
2021/12/11 03:11:34;;;;;;;42.00;22.15;;;;;;;;;;5092580;28;20043;-74
2021/12/11 03:14:03;;;;;;;37.40;20.65;;;;;;;;;;5109314;28;20048;-75
2021/12/11 03:16:31;;;;;;;34.70;20.30;;;;;;;;;;5108647;28;20101;-74
2021/12/11 03:18:57;;;;;;;46.33;22.25;;;;;;;;;;5091971;28;20058;-75
2021/12/11 03:21:24;;;;;;;36.83;21.98;;;;;;;;;;5093926;28;20386;-74
2021/12/11 03:23:50;;;;;;;40.20;22.67;;;;;;;;;;5107997;27;20502;-75
2021/12/11 03:26:17;;;;;;;43.03;21.35;;;;;;;;;;5090632;28;20047;-75
2021/12/11 03:28:43;;;;;;;42.63;22.30;;;;;;;;;;5106562;28;20044;-75
2021/12/11 03:31:10;;;;;;;39.13;20.42;;;;;;;;;;5109107;28;20099;-75
2021/12/11 03:33:38;;;;;;;37.33;21.52;;;;;;;;;;5092857;28;20050;-74
2021/12/11 03:36:05;;;;;;;44.33;21.65;;;;;;;;;;5107882;28;20074;-75
2021/12/11 03:38:32;;;;;;;38.33;21.42;;;;;;;;;;5108188;28;20367;-75
2021/12/11 03:40:58;;;;;;;39.10;19.73;;;;;;;;;;5109399;28;20040;-74
2021/12/11 03:43:25;;;;;;;40.83;22.42;;;;;;;;;;5107680;28;20544;-74
2021/12/11 03:45:53;;;;;;;40.08;20.55;;;;;;;;;;5107722;28;20044;-74
2021/12/11 03:48:27;;;;;;;40.97;21.40;;;;;;;;;;5107944;28;20328;-74
2021/12/11 03:50:54;;;;;;;42.40;21.40;;;;;;;;;;5109086;28;20075;-74
2021/12/11 03:53:21;;;;;;;43.13;21.83;;;;;;;;;;5108334;28;20039;-74
2021/12/11 03:55:51;;;;;;;44.25;20.48;;;;;;;;;;5091596;28;20042;-75
2021/12/11 03:58:17;;;;;;;47.53;23.15;;;;;;;;;;5112954;27;20082;-74
2021/12/11 04:00:55;;;;;;;49.25;24.70;;;;;;;;;;5124122;27;20048;-75
2021/12/11 04:03:23;;;;;;;53.30;25.48;;;;;;;;;;5122913;27;20052;-75
2021/12/11 04:05:50;;;;;;;46.33;24.27;;;;;;;;;;5120283;27;20367;-75
2021/12/11 04:08:20;;;;;;;41.30;23.08;;;;;;;;;;5123612;27;20048;-74
2021/12/11 04:10:47;;;;;;;53.72;25.00;;;;;;;;;;5122838;27;20048;-74
2021/12/11 04:13:14;;;;;;;46.00;25.20;;;;;;;;;;5124642;27;20130;-74
2021/12/11 04:15:43;;;;;;;54.75;27.63;;;;;;;;;;5124860;27;20046;-75
2021/12/11 04:18:09;;;;;;;49.88;26.23;;;;;;;;;;5118694;27;20113;-75
2021/12/11 04:20:37;;;;;;;50.78;25.77;;;;;;;;;;5123605;27;20050;-75
2021/12/11 04:23:04;;;;;;;56.75;25.60;;;;;;;;;;5106079;27;20394;-75
2021/12/11 04:25:30;;;;;;;52.20;26.25;;;;;;;;;;5123921;27;20046;-74
2021/12/11 04:27:57;;;;;;;56.97;29.00;;;;;;;;;;5121396;27;20039;-75
2021/12/11 04:30:24;;;;;;;58.65;27.88;;;;;;;;;;5125865;27;20043;-75
2021/12/11 04:32:51;;;;;;;47.40;25.80;;;;;;;;;;5127789;27;20078;-75
2021/12/11 04:35:18;;;;;;;48.97;25.08;;;;;;;;;;5126278;27;20046;-75
2021/12/11 04:37:44;;;;;;;42.47;24.25;;;;;;;;;;5127061;27;20483;-75
2021/12/11 04:40:12;;;;;;;43.85;24.13;;;;;;;;;;5118837;27;20100;-75
2021/12/11 04:43:02;;;;;;;43.83;23.60;;;;;;;;;;5105561;27;20092;-75
2021/12/11 04:45:33;;;;;;;51.47;24.27;;;;;;;;;;5126556;27;20078;-75
2021/12/11 04:48:09;;;;;;;38.63;22.08;;;;;;;;;;5103939;27;20040;-75
2021/12/11 04:50:55;;;;;;;41.65;21.85;;;;;;;;;;5123103;27;20047;-75
2021/12/11 04:53:49;;;;;;;42.75;22.73;;;;;;;;;;5121053;27;20148;-75
2021/12/11 04:59:47;;;;;;;38.70;20.13;;;;;;;;;;5073161;27;20083;-75
2021/12/11 05:05:17;;;;;;;39.80;21.05;;;;;;;;;;5109003;27;20051;-75
2021/12/11 05:10:41;;;;;;;36.95;20.88;;;;;;;;;;5062817;28;20441;-75
2021/12/11 05:13:07;;;;;;;42.00;21.60;;;;;;;;;;5122996;27;20047;-76
2021/12/11 05:15:39;;;;;;;42.42;21.92;;;;;;;;;;5092227;28;20394;-75
2021/12/11 05:18:06;;;;;;;45.70;22.60;;;;;;;;;;5091884;28;20032;-75
2021/12/11 05:20:33;;;;;;;43.38;22.92;;;;;;;;;;5093181;28;20050;-76
2021/12/11 05:22:59;;;;;;;40.83;22.25;;;;;;;;;;5106695;28;20050;-76
2021/12/11 05:25:26;;;;;;;44.65;22.30;;;;;;;;;;5107354;27;20086;-75
2021/12/11 05:27:52;;;;;;;43.22;22.77;;;;;;;;;;5107707;27;20044;-75
2021/12/11 05:30:20;;;;;;;42.90;22.73;;;;;;;;;;5107937;28;20083;-75
2021/12/11 05:32:46;;;;;;;39.50;20.98;;;;;;;;;;5106506;28;20035;-76
2021/12/11 05:35:12;;;;;;;37.90;22.02;;;;;;;;;;5091245;28;20491;-75
2021/12/11 05:37:38;;;;;;;40.08;21.65;;;;;;;;;;5105900;28;20126;-76
2021/12/11 05:40:07;;;;;;;42.78;23.02;;;;;;;;;;5091352;28;20059;-75
2021/12/11 05:42:33;;;;;;;38.20;20.45;;;;;;;;;;5088985;28;20500;-79
2021/12/11 05:44:59;;;;;;;37.17;20.70;;;;;;;;;;5108202;28;20044;-78
2021/12/11 05:47:25;;;;;;;42.17;20.95;;;;;;;;;;5107853;28;20116;-77
2021/12/11 05:49:51;;;;;;;37.67;22.10;;;;;;;;;;5107364;28;20482;-76
2021/12/11 05:52:18;;;;;;;41.47;21.92;;;;;;;;;;5089089;28;20044;-76
2021/12/11 05:54:46;;;;;;;44.10;22.60;;;;;;;;;;5094065;28;20184;-76
2021/12/11 05:57:14;;;;;;;50.60;24.40;;;;;;;;;;5110486;28;20040;-76
2021/12/11 05:59:43;;;;;;;47.83;24.50;;;;;;;;;;5126876;27;20498;-75
2021/12/11 06:02:14;;;;;;;39.05;21.25;;;;;;;;;;5111673;27;20081;-76
2021/12/11 06:04:42;;;;;;;41.67;22.83;;;;;;;;;;5111988;27;20054;-76
2021/12/11 06:07:09;;;;;;;49.42;22.33;;;;;;;;;;5131368;27;20043;-76
2021/12/11 06:09:36;;;;;;;45.95;25.08;;;;;;;;;;5126789;27;20090;-77
2021/12/11 06:12:04;;;;;;;46.10;24.25;;;;;;;;;;5113829;27;20554;-76
2021/12/11 06:14:31;;;;;;;43.03;23.70;;;;;;;;;;5127813;27;20431;-76
2021/12/11 06:16:58;;;;;;;41.78;22.98;;;;;;;;;;5107608;27;20043;-76
2021/12/11 06:19:25;;;;;;;45.88;23.30;;;;;;;;;;5128846;27;20126;-76
2021/12/11 06:21:52;;;;;;;45.88;23.08;;;;;;;;;;5131492;27;20043;-75
2021/12/11 06:24:19;;;;;;;45.10;23.13;;;;;;;;;;5123588;27;20071;-76
2021/12/11 06:26:45;;;;;;;50.47;23.92;;;;;;;;;;5111485;27;20215;-78
2021/12/11 06:29:11;;;;;;;46.15;23.10;;;;;;;;;;5127149;27;20035;-77
2021/12/11 06:31:37;;;;;;;44.97;22.40;;;;;;;;;;5131305;27;20043;-77
2021/12/11 06:34:03;;;;;;;42.92;23.40;;;;;;;;;;5095858;27;20051;-76
2021/12/11 06:36:29;;;;;;;49.42;23.77;;;;;;;;;;5128887;27;20039;-76
2021/12/11 06:39:01;;;;;;;44.05;22.83;;;;;;;;;;5124048;27;20039;-76
2021/12/11 06:41:29;;;;;;;49.22;24.08;;;;;;;;;;5111762;27;20130;-76
2021/12/11 06:43:55;;;;;;;47.03;24.35;;;;;;;;;;5122040;27;20050;-74
2021/12/11 06:46:21;;;;;;;41.83;23.35;;;;;;;;;;5109429;27;20043;-75
2021/12/11 06:48:48;;;;;;;46.75;24.42;;;;;;;;;;5127043;27;20039;-75
2021/12/11 06:51:14;;;;;;;45.75;25.15;;;;;;;;;;5131535;27;20070;-75
2021/12/11 06:53:42;;;;;;;48.25;23.48;;;;;;;;;;5122584;27;20043;-76
2021/12/11 06:56:10;;;;;;;44.35;24.73;;;;;;;;;;5121754;27;20918;-75
2021/12/11 06:58:36;;;;;;;47.58;24.48;;;;;;;;;;5101761;27;20058;-78
2021/12/11 07:01:03;;;;;;;47.45;25.75;;;;;;;;;;5119183;27;20035;-76
2021/12/11 07:03:29;;;;;;;59.50;29.95;;;;;;;;;;5116710;27;20104;-80
2021/12/11 07:05:55;;;;;;;54.38;27.00;;;;;;;;;;5121090;27;20058;-76
2021/12/11 07:08:23;;;;;;;47.10;26.30;;;;;;;;;;5107832;27;20040;-76
2021/12/11 07:10:49;;;;;;;43.55;24.65;;;;;;;;;;5098613;28;20126;-77
2021/12/11 07:13:15;;;;;;;48.33;24.73;;;;;;;;;;5104778;28;20043;-78
2021/12/11 07:15:42;;;;;;;45.40;23.73;;;;;;;;;;5103524;27;20418;-78
2021/12/11 07:18:09;;;;;;;46.85;24.30;;;;;;;;;;5104618;28;20059;-78
2021/12/11 07:20:35;;;;;;;47.10;25.10;;;;;;;;;;5097417;28;20518;-78
2021/12/11 07:23:01;;;;;;;46.00;24.30;;;;;;;;;;5076142;28;20052;-79
2021/12/11 07:25:32;;;;;;;42.15;24.20;;;;;;;;;;5076610;28;20479;-78
2021/12/11 07:28:03;;;;;;;51.22;26.02;;;;;;;;;;5094178;28;20072;-79
2021/12/11 07:30:29;;;;;;;45.60;24.20;;;;;;;;;;5073893;28;20044;-78
2021/12/11 07:32:56;;;;;;;47.28;23.30;;;;;;;;;;5105200;28;20071;-78
2021/12/11 07:35:23;;;;;;;42.90;25.00;;;;;;;;;;5093605;28;20036;-78
2021/12/11 07:37:50;;;;;;;49.80;24.63;;;;;;;;;;5099150;28;20078;-78
2021/12/11 07:40:18;;;;;;;45.78;26.25;;;;;;;;;;5100292;28;20050;-77
2021/12/11 07:42:45;;;;;;;54.75;27.58;;;;;;;;;;5104248;28;20048;-78
2021/12/11 07:45:11;;;;;;;49.97;27.15;;;;;;;;;;5107035;28;20036;-78
2021/12/11 07:47:37;;;;;;;54.35;28.02;;;;;;;;;;5092597;28;20040;-78
2021/12/11 07:50:04;;;;;;;55.28;29.58;;;;;;;;;;5076822;28;20681;-78
2021/12/11 07:52:30;;;;;;;60.90;28.20;;;;;;;;;;5104341;28;20386;-78
2021/12/11 07:54:56;;;;;;;54.03;27.65;;;;;;;;;;5090544;28;20039;-78
2021/12/11 07:57:22;;;;;;;49.70;25.75;;;;;;;;;;5102599;28;20044;-77
2021/12/11 07:59:48;;;;;;;60.25;28.08;;;;;;;;;;5087284;28;20048;-78
2021/12/11 08:02:14;;;;;;;51.05;27.10;;;;;;;;;;5092901;28;20144;-78
2021/12/11 08:04:41;;;;;;;53.95;28.05;;;;;;;;;;5095226;28;20168;-78
2021/12/11 08:07:07;;;;;;;52.63;26.25;;;;;;;;;;5102016;28;20040;-78
2021/12/11 08:09:34;;;;;;;53.78;27.50;;;;;;;;;;5091699;28;20104;-78
2021/12/11 08:12:00;;;;;;;60.35;28.33;;;;;;;;;;5073404;28;20055;-78
2021/12/11 08:14:26;;;;;;;60.33;28.85;;;;;;;;;;5093332;28;20048;-78
2021/12/11 08:16:56;;;;;;;54.92;29.75;;;;;;;;;;5074407;28;20475;-78
2021/12/11 08:19:23;;;;;;;55.67;29.85;;;;;;;;;;5096120;28;20139;-78
2021/12/11 08:21:52;;;;;;;59.53;30.02;;;;;;;;;;5108125;28;20046;-78
2021/12/11 08:24:19;;;;;;;64.15;31.38;;;;;;;;;;5078936;28;20512;-78
2021/12/11 08:26:45;;;;;;;50.85;27.35;;;;;;;;;;5074088;28;20601;-79
2021/12/11 08:29:12;;;;;;;59.58;29.55;;;;;;;;;;5075001;28;20479;-78
2021/12/11 08:31:40;;;;;;;59.05;30.05;;;;;;;;;;5081015;28;20047;-78
2021/12/11 08:34:06;;;;;;;64.97;31.23;;;;;;;;;;5105909;28;20040;-78
2021/12/11 08:36:32;;;;;;;59.70;31.42;;;;;;;;;;5083702;28;20528;-78
2021/12/11 08:38:59;;;;;;;68.15;34.33;;;;;;;;;;5091054;28;20126;-78
2021/12/11 08:41:28;;;;;;;69.15;32.90;;;;;;;;;;5091721;28;20487;-77
2021/12/11 08:44:03;;;;;;;64.38;32.40;;;;;;;;;;5080889;28;20339;-78
2021/12/11 08:46:31;;;;;;;70.40;37.17;;;;;;;;;;5086007;28;20075;-77
2021/12/11 08:49:00;;;;;;;80.32;37.60;;;;;;;;;;5091367;28;20503;-77
2021/12/11 08:51:32;;;;;;;84.10;38.70;;;;;;;;;;5101657;28;20051;-78
2021/12/11 08:53:58;;;;;;;88.28;43.60;;;;;;;;;;5094049;28;20402;-77
2021/12/11 08:56:25;;;;;;;95.85;44.63;;;;;;;;;;5106633;28;20462;-78
2021/12/11 08:58:52;;;;;;;95.55;45.55;;;;;;;;;;5097020;27;20056;-79
2021/12/11 09:01:27;;;;;;;99.13;46.72;;;;;;;;;;5112783;27;20042;-82
2021/12/11 09:04:15;;;;;;;90.10;43.35;;;;;;;;;;5110426;27;20035;-79
2021/12/11 09:06:50;;;;;;;87.13;44.22;;;;;;;;;;5109499;27;20478;-80
2021/12/11 09:09:34;;;;;;;83.18;43.97;;;;;;;;;;5127532;27;20596;-85
2021/12/11 09:12:04;;;;;;;70.22;39.03;;;;;;;;;;5131387;27;20042;-80
2021/12/11 09:14:36;;;;;;;63.28;36.28;;;;;;;;;;5124500;27;20052;-80
2021/12/11 09:17:06;;;;;;;62.72;36.70;;;;;;;;;;5114128;27;20053;-81
2021/12/11 09:19:39;;;;;;;69.03;37.03;;;;;;;;;;5124992;27;20045;-81
2021/12/11 09:22:21;;;;;;;82.77;43.47;;;;;;;;;;5112629;27;20042;-82
2021/12/11 09:24:49;;;;;;;82.63;44.80;;;;;;;;;;5125366;27;20100;-83
2021/12/11 09:27:15;;;;;;;80.18;43.10;;;;;;;;;;5116703;27;20103;-83
2021/12/11 09:29:51;;;;;;;78.07;40.50;;;;;;;;;;5112978;27;20107;-82
2021/12/11 09:32:17;;;;;;;;;;;;;;;;;;5110670;27;20049;-82
2021/12/11 09:34:43;;;;;;;;;;;;;;;;;;5128835;27;20347;-82
2021/12/11 09:37:08;;;;;;;;;;;;;;;;;;5124635;27;19926;-84
2021/12/11 09:39:34;;;;;;;;;;;;;;;;;;5124695;27;19975;-83
2021/12/11 09:42:01;;;;;;;;;;;;;;;;;;5129986;27;20051;-81
2021/12/11 09:44:29;;;;;;;;;;;;;;;;;;5127675;27;20002;-79
2021/12/11 09:46:55;;;;;;;;;;;;;;;;;;5106454;27;19993;-79
2021/12/11 09:49:21;;;;;;;;;;;;;;;;;;5113184;27;19923;-76
2021/12/11 09:51:47;;;;;;;;;;;;;;;;;;5129505;27;20018;-77
2021/12/11 09:54:13;;;;;;;;;;;;;;;;;;5141126;27;20434;-77
2021/12/11 09:56:39;;;;;;;;;;;;;;;;;;5127709;27;19979;-77
2021/12/11 09:59:05;;;;;;;;;;;;;;;;;;5110344;27;19926;-77
2021/12/11 10:01:32;;;;;;;;;;;;;;;;;;5110555;27;19919;-77
2021/12/11 10:04:00;;;;;;;;;;;;;;;;;;5122073;27;19934;-77
2021/12/11 10:06:39;;;;;;;;;;;;;;;;;;5130826;27;20373;-76
2021/12/11 10:09:17;;;;;;;;;;;;;;;;;;5130322;27;20009;-76
2021/12/11 10:11:44;;;;;;;43.05;26.77;;;;;;;;;;5130586;27;19919;-77
2021/12/11 10:14:12;;;;;;;42.17;27.40;;;;;;;;;;5130919;27;20125;-77
2021/12/11 10:16:40;;;;;;;47.53;29.05;;;;;;;;;;5131554;27;20039;-77
2021/12/11 10:19:08;;;;;;;51.05;29.33;;;;;;;;;;5115794;27;20437;-77
2021/12/11 10:21:37;;;;;;;49.17;30.10;;;;;;;;;;5116713;27;20054;-79
2021/12/11 10:24:05;;;;;;;45.97;29.00;;;;;;;;;;5120139;27;20039;-79
2021/12/11 10:26:32;;;;;;;46.92;30.50;;;;;;;;;;5132343;27;20079;-78
2021/12/11 10:29:00;;;;;;;50.42;30.60;;;;;;;;;;5101473;27;20499;-80
2021/12/11 10:31:29;;;;;;;45.67;30.05;;;;;;;;;;5142705;27;20476;-78
2021/12/11 10:33:56;;;;;;;54.55;31.70;;;;;;;;;;5113971;27;20045;-76
2021/12/11 10:36:27;;;;;;;53.58;31.45;;;;;;;;;;5114552;27;20046;-79
2021/12/11 10:38:54;;;;;;;143.25;94.57;;;;;;;;;;5116295;27;20045;-82
2021/12/11 10:41:20;;;;;;;45.65;31.23;;;;;;;;;;5118739;27;20321;-78
2021/12/11 10:43:53;;;;;;;46.97;30.50;;;;;;;;;;5117604;27;20117;-78
2021/12/11 10:46:20;;;;;;;52.75;32.45;;;;;;;;;;5118832;27;20050;-81
2021/12/11 10:48:47;;;;;;;54.50;32.25;;;;;;;;;;5132440;27;20075;-78
2021/12/11 10:51:15;;;;;;;53.25;31.35;;;;;;;;;;5138037;27;20119;-78
2021/12/11 10:53:46;;;;;;;50.33;30.27;;;;;;;;;;5135858;27;20475;-79
2021/12/11 10:56:13;;;;;;;46.38;28.25;;;;;;;;;;5134733;27;20045;-79
2021/12/11 10:58:41;;;;;;;48.03;29.02;;;;;;;;;;5134347;27;20134;-80
2021/12/11 11:01:12;;;;;;;49.97;29.73;;;;;;;;;;5114696;27;20134;-79
2021/12/11 11:03:43;;;;;;;42.92;28.73;;;;;;;;;;5129552;27;20038;-85
2021/12/11 11:06:09;;;;;;;46.60;28.33;;;;;;;;;;5163748;27;20042;-78
2021/12/11 11:08:35;;;;;;;44.30;27.48;;;;;;;;;;5129502;27;20043;-80
2021/12/11 11:11:05;;;;;;;46.60;27.98;;;;;;;;;;5111707;27;20038;-79
2021/12/11 11:13:32;;;;;;;46.95;29.33;;;;;;;;;;5131170;27;20046;-79
2021/12/11 11:15:58;;;;;;;41.97;26.25;;;;;;;;;;5131902;27;20117;-78
2021/12/11 11:18:25;;;;;;;43.97;28.77;;;;;;;;;;5114598;27;20067;-77
2021/12/11 11:20:58;;;;;;;37.60;24.67;;;;;;;;;;5129178;27;20041;-78
2021/12/11 11:23:24;;;;;;;40.60;24.83;;;;;;;;;;5108795;27;20086;-78
2021/12/11 11:25:53;;;;;;;44.83;25.88;;;;;;;;;;5111430;27;20064;-82
2021/12/11 11:28:20;;;;;;;42.38;26.35;;;;;;;;;;5111799;27;20047;-84
2021/12/11 11:30:48;;;;;;;43.63;25.80;;;;;;;;;;5128297;27;20073;-84
2021/12/11 11:33:15;;;;;;;38.85;25.35;;;;;;;;;;5114644;27;20473;-83
2021/12/11 11:35:43;;;;;;;45.15;26.25;;;;;;;;;;5111762;27;20474;-80
2021/12/11 11:38:13;;;;;;;46.35;27.45;;;;;;;;;;5133698;27;20088;-78
2021/12/11 11:40:42;;;;;;;45.78;28.77;;;;;;;;;;5125512;27;20054;-79
2021/12/11 11:43:09;;;;;;;45.85;27.42;;;;;;;;;;5130173;27;20091;-85
2021/12/11 11:45:35;;;;;;;48.50;28.85;;;;;;;;;;5126472;27;20051;-82
2021/12/11 11:48:01;;;;;;;42.10;27.63;;;;;;;;;;5144989;27;20053;-77
2021/12/11 11:50:30;;;;;;;43.10;25.80;;;;;;;;;;5135832;27;20050;-75
2021/12/11 11:52:56;;;;;;;43.15;27.83;;;;;;;;;;5133623;27;20074;-76
2021/12/11 11:55:26;;;;;;;44.78;28.52;;;;;;;;;;5134287;27;20035;-77
2021/12/11 11:57:52;;;;;;;47.88;28.25;;;;;;;;;;5133646;27;20062;-76
2021/12/11 12:00:21;;;;;;;43.22;26.80;;;;;;;;;;5134666;27;20493;-77
2021/12/11 12:02:48;;;;;;;42.20;27.42;;;;;;;;;;5135503;27;20090;-77
2021/12/11 12:05:14;;;;;;;44.10;26.48;;;;;;;;;;5117134;27;20042;-76
2021/12/11 12:07:40;;;;;;;44.05;27.08;;;;;;;;;;5135230;27;20524;-78
2021/12/11 12:10:16;;;;;;;44.20;28.17;;;;;;;;;;5137363;27;20046;-76
2021/12/11 12:12:42;;;;;;;43.72;27.33;;;;;;;;;;5119756;27;21170;-76
2021/12/11 12:15:10;;;;;;;41.15;26.92;;;;;;;;;;5114279;27;20034;-77
2021/12/11 12:17:37;;;;;;;45.53;27.90;;;;;;;;;;5127021;27;20401;-76
2021/12/11 12:20:04;;;;;;;44.97;27.08;;;;;;;;;;5131322;27;20119;-76
2021/12/11 12:22:31;;;;;;;46.08;29.10;;;;;;;;;;5132951;27;20039;-80
2021/12/11 12:24:57;;;;;;;50.85;29.30;;;;;;;;;;5133800;27;20039;-77
2021/12/11 12:27:25;;;;;;;49.25;29.83;;;;;;;;;;5137329;27;20043;-76
2021/12/11 12:29:52;;;;;;;45.72;28.77;;;;;;;;;;5126921;27;20044;-79
2021/12/11 12:32:24;;;;;;;48.88;28.70;;;;;;;;;;5117559;27;20042;-79
2021/12/11 12:34:52;;;;;;;50.40;28.50;;;;;;;;;;5137184;27;20035;-78
2021/12/11 12:37:19;;;;;;;47.40;30.33;;;;;;;;;;5118179;27;20130;-76
2021/12/11 12:39:47;;;;;;;49.55;29.23;;;;;;;;;;5131892;27;20070;-76
2021/12/11 12:42:19;;;;;;;50.72;29.55;;;;;;;;;;5131188;27;20049;-76
2021/12/11 12:44:48;;;;;;;47.88;30.38;;;;;;;;;;5116416;27;20042;-76
2021/12/11 12:47:17;;;;;;;47.58;29.40;;;;;;;;;;5114622;27;20141;-77
2021/12/11 12:49:45;;;;;;;50.05;29.60;;;;;;;;;;5130681;27;20130;-77
2021/12/11 12:52:20;;;;;;;50.95;31.13;;;;;;;;;;5131731;27;20088;-78
2021/12/11 12:54:47;;;;;;;50.50;30.15;;;;;;;;;;5130129;27;20564;-82
2021/12/11 12:57:18;;;;;;;54.25;31.60;;;;;;;;;;5132505;27;20354;-78
2021/12/11 13:00:04;;;;;;;54.83;30.35;;;;;;;;;;5117027;27;20093;-87
2021/12/11 13:02:32;;;;;;;50.00;31.00;;;;;;;;;;5114186;27;20542;-77
2021/12/11 13:05:02;;;;;;;54.10;29.98;;;;;;;;;;5135104;27;20126;-72
2021/12/11 13:07:28;;;;;;;55.63;30.85;;;;;;;;;;5125952;27;20061;-71
2021/12/11 13:09:59;;;;;;;49.22;29.85;;;;;;;;;;5112385;27;20034;-73
2021/12/11 13:12:31;;;;;;;52.40;28.67;;;;;;;;;;5111919;27;20050;-72
2021/12/11 13:15:01;;;;;;;46.58;27.95;;;;;;;;;;5115740;27;20034;-77
2021/12/11 13:17:32;;;;;;;51.58;28.77;;;;;;;;;;5128273;27;20431;-78
2021/12/11 13:20:02;;;;;;;52.80;29.35;;;;;;;;;;5132089;27;20049;-78
2021/12/11 13:22:40;;;;;;;46.28;27.95;;;;;;;;;;5131563;27;20038;-74
2021/12/11 13:25:26;;;;;;;46.05;27.85;;;;;;;;;;5147447;27;20054;-74
2021/12/11 13:27:54;;;;;;;51.40;29.13;;;;;;;;;;5130362;27;20042;-74
2021/12/11 13:30:24;;;;;;;47.00;28.17;;;;;;;;;;5131545;27;20046;-74
2021/12/11 13:32:50;;;;;;;48.25;28.60;;;;;;;;;;5130547;27;20038;-75
2021/12/11 13:35:18;;;;;;;55.88;30.77;;;;;;;;;;5130367;27;20053;-74
2021/12/11 13:37:45;;;;;;;47.60;28.80;;;;;;;;;;5129247;27;20050;-73
2021/12/11 13:40:14;;;;;;;47.25;28.92;;;;;;;;;;5125871;27;20078;-73
2021/12/11 13:42:41;;;;;;;52.13;31.30;;;;;;;;;;5119504;27;20043;-73
2021/12/11 13:45:10;;;;;;;52.42;28.83;;;;;;;;;;5123277;27;20054;-73
2021/12/11 13:47:37;;;;;;;49.88;29.17;;;;;;;;;;5130708;27;20536;-74
2021/12/11 13:50:09;;;;;;;55.08;28.42;;;;;;;;;;5113054;27;20196;-73
2021/12/11 13:52:35;;;;;;;49.33;27.65;;;;;;;;;;5125901;27;20038;-76
2021/12/11 13:55:01;;;;;;;50.70;29.58;;;;;;;;;;5131087;27;20043;-78
2021/12/11 13:57:27;;;;;;;52.28;30.67;;;;;;;;;;5115562;27;20046;-80
2021/12/11 14:00:02;;;;;;;50.72;28.80;;;;;;;;;;5129542;27;20105;-76
2021/12/11 14:02:28;;;;;;;58.55;30.20;;;;;;;;;;5122300;27;20473;-77
2021/12/11 14:04:56;;;;;;;52.03;30.27;;;;;;;;;;5110979;27;20500;-75
2021/12/11 14:07:23;;;;;;;53.53;30.08;;;;;;;;;;5113067;28;20043;-75
2021/12/11 14:09:53;;;;;;;53.22;29.70;;;;;;;;;;5128035;27;20051;-75
2021/12/11 14:12:24;;;;;;;45.97;29.02;;;;;;;;;;5132930;27;20038;-75
2021/12/11 14:14:51;;;;;;;50.35;28.77;;;;;;;;;;5126153;27;20155;-74
2021/12/11 14:17:17;;;;;;;55.92;29.38;;;;;;;;;;5133521;27;20049;-75
2021/12/11 14:19:45;;;;;;;50.65;30.45;;;;;;;;;;5117912;27;20054;-75
2021/12/11 14:22:13;;;;;;;54.63;31.00;;;;;;;;;;5170341;27;20049;-76
2021/12/11 14:24:42;;;;;;;55.20;30.35;;;;;;;;;;5130582;27;20058;-76
2021/12/11 14:27:13;;;;;;;58.33;30.23;;;;;;;;;;5133357;27;20088;-72
2021/12/11 14:29:42;;;;;;;54.25;31.15;;;;;;;;;;5118022;27;20054;-76
2021/12/11 14:32:08;;;;;;;60.15;31.90;;;;;;;;;;5129676;27;20053;-77
2021/12/11 14:34:34;;;;;;;51.10;29.77;;;;;;;;;;5116550;27;20043;-77
2021/12/11 14:37:03;;;;;;;56.28;29.52;;;;;;;;;;5133839;27;20481;-76
2021/12/11 14:39:30;;;;;;;59.28;30.38;;;;;;;;;;5135893;27;20059;-76
2021/12/11 14:41:56;;;;;;;51.58;30.50;;;;;;;;;;5138297;27;20108;-76
2021/12/11 14:44:25;;;;;;;67.85;33.80;;;;;;;;;;5136099;27;20119;-76
2021/12/11 14:46:52;;;;;;;58.47;30.25;;;;;;;;;;5132555;27;20124;-76